createdAt,value
2023-02-19T00:00:20.597Z,7.32
2023-02-19T00:10:23.126Z,7.18
2023-02-19T00:20:25.723Z,7.14
2023-02-19T00:30:28.226Z,7.00
2023-02-19T00:40:31.157Z,7.02
2023-02-19T00:50:34.829Z,7.05
2023-02-19T01:00:37.252Z,6.86
2023-02-19T01:10:39.849Z,6.64
2023-02-19T01:20:44.613Z,6.43
2023-02-19T01:30:47.113Z,6.24
2023-02-19T01:41:00.820Z,5.98
2023-02-19T01:51:15.067Z,5.90
2023-02-19T02:01:17.878Z,5.83
2023-02-19T02:11:21.540Z,5.59
2023-02-19T02:21:53.520Z,5.49
2023-02-19T02:32:08.054Z,5.18
2023-02-19T02:42:28.846Z,5.15
2023-02-19T02:53:10.912Z,5.36
2023-02-19T03:03:17.407Z,5.12
2023-02-19T03:13:54.493Z,5.15
2023-02-19T03:24:16.351Z,5.49
2023-02-19T03:34:26.259Z,5.87
2023-02-19T03:44:40.937Z,5.81
2023-02-19T03:54:43.821Z,5.85
2023-02-19T04:04:56.633Z,5.66
2023-02-19T04:15:10.297Z,5.64
2023-02-19T04:25:13.096Z,5.64
2023-02-19T04:35:15.614Z,5.69
2023-02-19T04:45:18.297Z,5.64
2023-02-19T04:55:20.912Z,5.61
2023-02-19T05:05:23.436Z,5.58
2023-02-19T05:15:26.081Z,5.52
2023-02-19T05:25:28.853Z,5.20
2023-02-19T05:35:31.442Z,5.19
2023-02-19T05:45:35.450Z,5.39
2023-02-19T05:55:38.080Z,5.53
2023-02-19T06:05:40.608Z,5.64
2023-02-19T06:15:43.409Z,5.59
2023-02-19T06:25:46.096Z,5.62
2023-02-19T06:35:48.692Z,5.73
2023-02-19T06:45:51.185Z,5.99
2023-02-19T06:56:08.529Z,5.99
2023-02-19T07:06:11.096Z,6.08
2023-02-19T07:16:14.509Z,6.16
2023-02-19T07:26:19.173Z,6.21
2023-02-19T07:36:23.790Z,6.09
2023-02-19T07:46:27.030Z,6.27
2023-02-19T07:56:29.536Z,6.36
2023-02-19T08:06:31.977Z,6.40
2023-02-19T08:16:43.074Z,6.49
2023-02-19T08:26:46.062Z,6.63
2023-02-19T08:36:48.581Z,7.00
2023-02-19T08:46:51.011Z,7.37
2023-02-19T08:56:53.484Z,7.64
2023-02-19T09:06:56.060Z,7.61
2023-02-19T09:16:58.496Z,7.78
2023-02-19T09:27:01.505Z,8.62
2023-02-19T09:37:03.992Z,9.25
2023-02-19T09:47:15.558Z,10.59
2023-02-19T09:57:21.374Z,12.00
2023-02-19T10:07:45.417Z,12.83
2023-02-19T10:17:48.273Z,12.56
2023-02-19T10:27:50.833Z,12.19
2023-02-19T10:37:53.958Z,13.60
2023-02-19T10:47:57.025Z,16.20
2023-02-19T10:58:21.847Z,18.15
2023-02-19T11:08:24.840Z,18.52
2023-02-19T11:18:31.155Z,19.72
2023-02-19T11:28:39.678Z,20.48
2023-02-19T11:38:42.805Z,20.80
2023-02-19T11:48:59.455Z,21.89
2023-02-19T11:59:03.104Z,22.70
2023-02-19T12:09:26.441Z,20.57
2023-02-19T12:20:06.963Z,17.90
2023-02-19T12:30:27.033Z,15.56
2023-02-19T12:40:59.286Z,15.60
2023-02-19T12:51:10.923Z,15.75
2023-02-19T13:01:20.958Z,16.76
2023-02-19T13:11:32.657Z,18.64
2023-02-19T13:21:56.391Z,21.58
2023-02-19T13:32:23.411Z,21.33
2023-02-19T13:42:34.352Z,18.60
2023-02-19T13:52:39.529Z,16.13
2023-02-19T14:02:42.327Z,15.69
2023-02-19T14:12:45.116Z,15.86
2023-02-19T14:22:47.870Z,15.67
2023-02-19T14:32:54.518Z,15.07
2023-02-19T14:43:01.574Z,14.71
2023-02-19T14:53:07.303Z,14.30
2023-02-19T15:03:42.368Z,14.35
2023-02-19T15:14:07.137Z,14.44
2023-02-19T15:24:13.895Z,14.39
2023-02-19T15:34:28.404Z,14.00
2023-02-19T15:44:38.088Z,13.54
2023-02-19T15:54:55.605Z,13.17
2023-02-19T16:04:58.614Z,12.68
2023-02-19T16:15:13.261Z,12.02
2023-02-19T16:25:28.139Z,11.29
2023-02-19T16:35:39.939Z,10.80
2023-02-19T16:45:47.608Z,10.44
2023-02-19T16:55:51.149Z,10.18
2023-02-19T17:05:54.258Z,9.70
2023-02-19T17:15:58.150Z,9.47
2023-02-19T17:26:00.801Z,9.33
2023-02-19T17:36:03.625Z,9.20
2023-02-19T17:46:06.407Z,9.16
2023-02-19T17:56:10.440Z,9.02
2023-02-19T18:06:13.677Z,9.29
2023-02-19T18:16:19.709Z,9.24
2023-02-19T18:26:22.573Z,9.10
2023-02-19T18:36:25.369Z,8.71
2023-02-19T18:46:28.300Z,8.44
2023-02-19T18:56:31.137Z,8.35
2023-02-19T19:06:35.873Z,8.35
2023-02-19T19:16:39.047Z,8.40
2023-02-19T19:26:46.442Z,8.27
2023-02-19T19:36:49.563Z,8.19
2023-02-19T19:46:55.447Z,8.02
2023-02-19T19:56:58.244Z,8.08
2023-02-19T20:07:01.843Z,8.02
2023-02-19T20:17:06.315Z,7.75
2023-02-19T20:27:09.138Z,7.74
2023-02-19T20:37:11.985Z,7.57
2023-02-19T20:47:14.956Z,7.49
2023-02-19T20:57:17.901Z,7.53
2023-02-19T21:07:20.865Z,7.37
2023-02-19T21:17:23.669Z,7.36
2023-02-19T21:27:26.324Z,7.40
2023-02-19T21:37:28.947Z,7.40
2023-02-19T21:47:31.712Z,7.39
2023-02-19T21:57:34.231Z,7.50
2023-02-19T22:07:37.444Z,7.57
2023-02-19T22:17:43.143Z,7.49
2023-02-19T22:27:45.785Z,7.19
2023-02-19T22:37:49.673Z,7.04
2023-02-19T22:47:56.087Z,6.90
2023-02-19T22:57:58.642Z,6.85
2023-02-19T23:08:01.224Z,6.44
2023-02-19T23:18:08.387Z,6.11
2023-02-19T23:28:11.128Z,6.09
2023-02-19T23:38:13.736Z,5.94
2023-02-19T23:48:16.992Z,5.81
2023-02-19T23:58:19.508Z,5.70
